Airfield :
LOGIN :

Register | Disclaimer

   EN    FR    IT 

 










Legend :    VFR   Marginal VFR   IFR   Intensive IFR   Very Intensive IFR
Visi :
Ceiling :
>= 8 km
>= 3000ft
5 to 8 km
1000 to 3000 ft
1500m to 5 km
500 to 1000 ft
800 to 1500m
200 to 500 ft
< 800m
< 200 ft
Symbols :   Thunderstorms  Fog  Heavy snow  Heavy precipitations  Wind > 20 kt
SIGMETs :     Misc.  Thunderstorms  Icing  Turbulence  Mountain Waves  Volcanic Ashes







- Airport Elevation : 622 ft
- IATA code : BRS
- Download approach charts


EGGD - Bristol Int.

CURRENT METAR :
  • 160750Z AUTO 11007KT 3900 BR FEW001 OVC017 12/12 Q1015

EXPIRED METARs :
  • 160720Z 12008KT 9999 1800E VCFG FEW001 BKN021 11/11 Q1015
  • 160650Z 12007KT 9999 2200NE VCFG BKN021 11/11 Q1015
  • 160620Z AUTO 11006KT 5000 BR FEW001 OVC020 11/11 Q1015
  • 160550Z AUTO 10005KT 2500 BR BKN001 OVC024 11/11 Q1015
  • 160520Z AUTO 10005KT 0100 R27/0375 FG VV/// 11/11 Q1014

TAF TAF EGGD
Valid from the 16 at 06:00 until the 17 at 06:00 UTC


160505Z 1606/1706 16005KT 0200 FG OVC000
TEMPO 1606/1609 2000 -DZ BKN002
BECMG 1609/1612 25010KT 8000 NSW BKN009
BECMG 1612/1614 9999 SCT020
BECMG 1617/1620 19008KT
BECMG 1623/1702 5000 -RADZ BR OVC003
TEMPO 1702/1706 1200 RADZ OVC001
PROB40
TEMPO 1702/1706 0300 DZ FG
ATIS : +44 1275 473 666
No reported NOTAMs for that airfield.



MET'MAP, your aeronautical weather chart ! - Copyright ORBIFLY December 2007 - Disclaimer

ORBIFLY MET'MAP TEAM :

Programming & Development : Alexandra Zaïnal
Concept & Development : Baudouin d'Aumeries
Co-Development & Prog : Marc-Olivier Méhu
Technical & hardware support : Manuel Goepfert

Contact : metmap@orbifly.com




SOURCES & CREDITS :

   NOAA